createdAt,value
2023-05-14T00:02:40.736Z,2.97
2023-05-14T00:05:42.794Z,2.45
2023-05-14T00:08:44.727Z,3.73
2023-05-14T00:11:46.712Z,2.85
2023-05-14T00:14:48.640Z,3.70
2023-05-14T00:17:50.712Z,3.40
2023-05-14T00:20:54.963Z,3.33
2023-05-14T00:23:57.066Z,2.95
2023-05-14T00:26:59.049Z,3.38
2023-05-14T00:30:01.127Z,3.55
2023-05-14T00:33:03.790Z,3.63
2023-05-14T00:36:06.201Z,3.30
2023-05-14T00:39:08.255Z,3.30
2023-05-14T00:42:10.411Z,4.20
2023-05-14T00:45:12.311Z,2.87
2023-05-14T00:48:14.522Z,2.83
2023-05-14T00:51:17.662Z,3.58
2023-05-14T00:54:20.722Z,3.95
2023-05-14T00:57:22.724Z,3.57
2023-05-14T01:00:24.911Z,2.70
2023-05-14T01:03:27.339Z,3.40
2023-05-14T01:06:54.427Z,3.53
2023-05-14T01:10:02.958Z,3.60
2023-05-14T01:13:30.200Z,3.40
2023-05-14T01:16:34.165Z,3.47
2023-05-14T01:19:44.085Z,2.72
2023-05-14T01:22:46.925Z,3.47
2023-05-14T01:25:49.101Z,2.75
2023-05-14T01:28:52.992Z,3.00
2023-05-14T01:31:57.414Z,3.65
2023-05-14T01:35:01.291Z,3.63
2023-05-14T01:38:06.659Z,3.47
2023-05-14T01:41:08.701Z,3.22
2023-05-14T01:44:11.164Z,3.15
2023-05-14T01:47:13.281Z,3.10
2023-05-14T01:50:15.257Z,2.67
2023-05-14T01:53:17.223Z,3.30
2023-05-14T01:56:21.780Z,3.90
2023-05-14T01:59:23.735Z,2.72
2023-05-14T02:02:26.028Z,3.27
2023-05-14T02:05:28.099Z,2.80
2023-05-14T02:08:29.994Z,2.13
2023-05-14T02:11:32.040Z,3.65
2023-05-14T02:14:33.982Z,2.85
2023-05-14T02:17:36.464Z,2.83
2023-05-14T02:20:38.467Z,2.75
2023-05-14T02:23:42.157Z,3.17
2023-05-14T02:26:44.439Z,3.22
2023-05-14T02:29:46.398Z,2.88
2023-05-14T02:32:49.334Z,2.60
2023-05-14T02:35:51.335Z,2.67
2023-05-14T02:38:53.323Z,2.15
2023-05-14T02:41:57.047Z,3.92
2023-05-14T02:44:59.047Z,2.75
2023-05-14T02:48:01.932Z,2.90
2023-05-14T02:51:03.983Z,2.72
2023-05-14T02:54:06.100Z,3.40
2023-05-14T02:57:08.045Z,2.15
2023-05-14T03:00:11.577Z,3.30
2023-05-14T03:03:13.902Z,2.47
2023-05-14T03:06:16.414Z,3.22
2023-05-14T03:09:18.382Z,2.35
2023-05-14T03:12:21.117Z,2.50
2023-05-14T03:15:23.033Z,2.58
2023-05-14T03:18:25.386Z,2.40
2023-05-14T03:21:27.410Z,2.85
2023-05-14T03:24:29.401Z,3.00
2023-05-14T03:27:31.397Z,3.47
2023-05-14T03:30:33.500Z,3.00
2023-05-14T03:33:35.884Z,2.97
2023-05-14T03:36:39.710Z,2.90
2023-05-14T03:39:41.678Z,3.28
2023-05-14T03:42:43.615Z,2.60
2023-05-14T03:45:46.170Z,2.45
2023-05-14T03:48:48.192Z,2.43
2023-05-14T03:51:50.631Z,3.03
2023-05-14T03:54:52.600Z,2.47
2023-05-14T03:57:54.558Z,2.45
2023-05-14T04:00:56.821Z,1.80
2023-05-14T04:03:58.931Z,2.13
2023-05-14T04:07:01.300Z,2.50
2023-05-14T04:10:04.916Z,3.15
2023-05-14T04:13:09.987Z,2.40
2023-05-14T04:16:14.343Z,2.40
2023-05-14T04:19:16.393Z,2.25
2023-05-14T04:22:18.497Z,2.53
2023-05-14T04:25:20.673Z,2.72
2023-05-14T04:28:22.607Z,2.13
2023-05-14T04:31:24.719Z,2.75
2023-05-14T04:34:26.677Z,2.85
2023-05-14T04:37:28.626Z,2.50
2023-05-14T04:40:31.424Z,2.30
2023-05-14T04:43:33.362Z,2.43
2023-05-14T04:46:35.438Z,2.20
2023-05-14T04:49:37.490Z,2.40
2023-05-14T04:52:39.619Z,2.17
2023-05-14T04:55:41.539Z,2.53
2023-05-14T04:58:43.425Z,2.78
2023-05-14T05:01:46.015Z,1.83
2023-05-14T05:04:48.202Z,2.50
2023-05-14T05:07:50.098Z,2.30
2023-05-14T05:10:51.992Z,2.47
2023-05-14T05:13:53.904Z,2.65
2023-05-14T05:16:55.872Z,2.58
2023-05-14T05:19:57.910Z,2.72
2023-05-14T05:22:59.848Z,2.67
2023-05-14T05:26:01.894Z,2.15
2023-05-14T05:29:04.585Z,2.42
2023-05-14T05:32:07.314Z,2.13
2023-05-14T05:35:09.696Z,2.28
2023-05-14T05:38:11.783Z,2.23
2023-05-14T05:41:13.752Z,2.42
2023-05-14T05:44:15.729Z,2.40
2023-05-14T05:47:17.752Z,1.75
2023-05-14T05:50:20.137Z,2.25
2023-05-14T05:53:22.259Z,2.23
2023-05-14T05:56:24.393Z,2.25
2023-05-14T05:59:26.709Z,2.17
2023-05-14T06:02:28.730Z,2.53
2023-05-14T06:05:30.855Z,2.58
2023-05-14T06:08:32.785Z,2.07
2023-05-14T06:11:35.459Z,2.90
2023-05-14T06:14:37.417Z,2.15
2023-05-14T06:17:39.461Z,2.35
2023-05-14T06:20:41.582Z,2.33
2023-05-14T06:23:43.579Z,2.77
2023-05-14T06:26:45.550Z,2.78
2023-05-14T06:29:47.561Z,2.40
2023-05-14T06:32:49.590Z,2.38
2023-05-14T06:35:51.613Z,1.95
2023-05-14T06:38:54.799Z,2.33
2023-05-14T06:41:56.772Z,2.20
2023-05-14T06:44:59.080Z,2.25
2023-05-14T06:48:01.084Z,2.47
2023-05-14T06:51:03.875Z,3.10
2023-05-14T06:54:05.810Z,2.00
2023-05-14T06:57:07.704Z,2.78
2023-05-14T07:00:10.206Z,2.67
2023-05-14T07:03:12.162Z,2.08
2023-05-14T07:06:14.159Z,2.67
2023-05-14T07:09:16.544Z,2.57
2023-05-14T07:12:18.539Z,2.78
2023-05-14T07:15:21.207Z,2.63
2023-05-14T07:18:24.119Z,2.50
2023-05-14T07:21:26.218Z,2.42
2023-05-14T07:24:28.334Z,2.40
2023-05-14T07:27:30.362Z,3.00
2023-05-14T07:30:32.272Z,3.75
2023-05-14T07:33:37.066Z,3.10
2023-05-14T07:36:39.022Z,2.92
2023-05-14T07:39:41.745Z,3.03
2023-05-14T07:42:43.681Z,2.95
2023-05-14T07:45:45.687Z,2.88
2023-05-14T07:48:47.743Z,2.35
2023-05-14T07:51:49.772Z,2.55
2023-05-14T07:54:52.059Z,3.47
2023-05-14T07:57:54.101Z,2.70
2023-05-14T08:00:56.684Z,2.90
2023-05-14T08:03:59.047Z,2.50
2023-05-14T08:07:01.121Z,2.70
2023-05-14T08:10:03.481Z,2.93
2023-05-14T08:13:05.602Z,3.05
2023-05-14T08:16:07.985Z,4.03
2023-05-14T08:19:10.100Z,3.03
2023-05-14T08:22:12.162Z,3.03
2023-05-14T08:25:14.145Z,3.37
2023-05-14T08:28:16.249Z,3.33
2023-05-14T08:31:18.271Z,3.40
2023-05-14T08:34:20.647Z,2.53
2023-05-14T08:37:22.674Z,2.90
2023-05-14T08:40:25.083Z,3.07
2023-05-14T08:43:49.483Z,2.67
2023-05-14T08:46:53.727Z,3.45
2023-05-14T08:50:02.711Z,3.10
2023-05-14T08:53:04.976Z,3.33
2023-05-14T08:56:09.078Z,2.50
2023-05-14T08:59:11.391Z,3.20
2023-05-14T09:02:17.398Z,3.47
2023-05-14T09:05:20.832Z,3.17
2023-05-14T09:08:23.197Z,2.97
2023-05-14T09:11:25.148Z,2.93
2023-05-14T09:14:27.080Z,2.80
2023-05-14T09:17:29.276Z,3.20
2023-05-14T09:20:32.204Z,3.15
2023-05-14T09:23:34.664Z,2.90
2023-05-14T09:26:36.760Z,3.13
2023-05-14T09:29:38.715Z,2.88
2023-05-14T09:32:44.217Z,2.60
2023-05-14T09:35:47.744Z,2.67
2023-05-14T09:38:49.742Z,2.67
2023-05-14T09:41:51.928Z,2.60
2023-05-14T09:44:53.939Z,3.28
2023-05-14T09:47:56.122Z,3.33
2023-05-14T09:50:58.479Z,3.38
2023-05-14T09:54:00.766Z,3.65
2023-05-14T09:57:02.884Z,3.33
2023-05-14T10:00:05.463Z,3.03
2023-05-14T10:03:08.327Z,3.42
2023-05-14T10:06:13.552Z,2.88
2023-05-14T10:09:17.592Z,3.13
2023-05-14T10:12:22.607Z,2.73
2023-05-14T10:15:30.166Z,3.47
2023-05-14T10:18:39.921Z,3.42
2023-05-14T10:21:45.935Z,3.08
2023-05-14T10:24:50.331Z,3.22
2023-05-14T10:27:52.688Z,3.50
2023-05-14T10:30:54.825Z,3.13
2023-05-14T10:33:58.010Z,3.10
2023-05-14T10:37:03.111Z,3.13
2023-05-14T10:40:08.376Z,3.33
2023-05-14T10:43:11.377Z,3.73
2023-05-14T10:46:14.429Z,3.90
2023-05-14T10:49:23.273Z,3.30
2023-05-14T10:52:35.437Z,3.10
2023-05-14T10:55:38.839Z,3.33
2023-05-14T10:58:43.865Z,2.67
2023-05-14T11:01:48.470Z,3.45
2023-05-14T11:05:03.680Z,3.80
2023-05-14T11:08:08.085Z,3.83
2023-05-14T11:11:10.951Z,3.60
2023-05-14T11:14:13.345Z,2.97
2023-05-14T11:17:15.725Z,3.17
2023-05-14T11:20:18.414Z,3.53
2023-05-14T11:23:23.589Z,3.80
2023-05-14T11:26:26.044Z,3.55
2023-05-14T11:29:28.249Z,3.43
2023-05-14T11:32:32.277Z,3.45
2023-05-14T11:35:34.280Z,3.92
2023-05-14T11:38:48.776Z,3.40
2023-05-14T11:41:50.754Z,2.80
2023-05-14T11:44:56.784Z,2.83
2023-05-14T11:47:58.893Z,3.40
2023-05-14T11:51:00.961Z,3.22
2023-05-14T11:54:04.052Z,3.58
2023-05-14T11:57:18.515Z,4.10
2023-05-14T12:00:22.258Z,3.67
2023-05-14T12:03:30.146Z,3.65
2023-05-14T12:06:32.601Z,4.07
2023-05-14T12:09:38.899Z,3.92
2023-05-14T12:12:41.008Z,4.72
2023-05-14T12:15:47.065Z,4.03
2023-05-14T12:18:49.120Z,3.55
2023-05-14T12:21:51.353Z,4.18
2023-05-14T12:24:54.782Z,4.70
2023-05-14T12:27:56.881Z,3.45
2023-05-14T12:30:59.698Z,4.23
2023-05-14T12:34:03.049Z,3.92
2023-05-14T12:37:08.884Z,4.28
2023-05-14T12:40:11.663Z,3.70
2023-05-14T12:43:13.674Z,4.63
2023-05-14T12:46:16.557Z,3.60
2023-05-14T12:49:19.706Z,3.90
2023-05-14T12:52:33.340Z,3.72
2023-05-14T12:55:39.250Z,3.90
2023-05-14T12:58:41.295Z,3.78
2023-05-14T13:01:43.728Z,4.63
2023-05-14T13:04:45.820Z,4.63
2023-05-14T13:07:47.926Z,3.92
2023-05-14T13:10:49.992Z,4.47
2023-05-14T13:13:51.917Z,4.78
2023-05-14T13:16:53.906Z,3.93
2023-05-14T13:19:56.127Z,3.95
2023-05-14T13:22:58.626Z,4.30
2023-05-14T13:26:00.680Z,4.22
2023-05-14T13:29:02.819Z,3.97
2023-05-14T13:32:05.170Z,4.27
2023-05-14T13:35:07.857Z,3.47
2023-05-14T13:38:09.889Z,3.40
2023-05-14T13:41:11.862Z,3.80
2023-05-14T13:44:13.894Z,3.05
2023-05-14T13:47:15.926Z,1.90
2023-05-14T13:50:18.026Z,2.78
2023-05-14T13:53:21.398Z,3.00
2023-05-14T13:56:23.346Z,2.20
2023-05-14T13:59:25.315Z,2.35
2023-05-14T14:02:27.360Z,2.33
2023-05-14T14:05:29.771Z,2.40
2023-05-14T14:08:31.815Z,2.30
2023-05-14T14:11:34.043Z,2.22
2023-05-14T14:14:36.034Z,2.00
2023-05-14T14:17:39.024Z,2.43
2023-05-14T14:20:41.142Z,2.70
2023-05-14T14:23:43.125Z,3.15
2023-05-14T14:26:45.052Z,2.72
2023-05-14T14:29:47.050Z,2.47
2023-05-14T14:32:49.502Z,2.50
2023-05-14T14:35:51.821Z,2.50
2023-05-14T14:38:53.734Z,2.65
2023-05-14T14:41:55.765Z,3.10
2023-05-14T14:44:57.764Z,2.47
2023-05-14T14:48:37.400Z,2.50
2023-05-14T14:51:39.587Z,1.95
2023-05-14T14:54:41.606Z,2.88
2023-05-14T14:57:45.129Z,3.03
2023-05-14T15:00:47.607Z,2.38
2023-05-14T15:03:49.757Z,2.87
2023-05-14T15:06:51.742Z,2.78
2023-05-14T15:09:53.799Z,3.10
2023-05-14T15:12:59.959Z,2.22
2023-05-14T15:16:02.215Z,2.08
2023-05-14T15:19:04.289Z,2.20
2023-05-14T15:22:06.421Z,2.33
2023-05-14T15:25:09.551Z,2.55
2023-05-14T15:28:11.630Z,2.40
2023-05-14T15:31:13.806Z,2.38
2023-05-14T15:34:15.978Z,2.00
2023-05-14T15:37:18.084Z,2.55
2023-05-14T15:40:20.077Z,2.03
2023-05-14T15:43:22.099Z,2.22
2023-05-14T15:46:24.281Z,2.72
2023-05-14T15:49:26.850Z,2.10
2023-05-14T15:52:29.188Z,2.70
2023-05-14T15:55:31.245Z,1.58
2023-05-14T15:58:33.175Z,1.75
2023-05-14T16:01:35.208Z,1.45
2023-05-14T16:04:37.171Z,1.70
2023-05-14T16:07:39.166Z,2.08
2023-05-14T16:10:41.250Z,1.67
2023-05-14T16:13:43.454Z,2.08
2023-05-14T16:16:45.448Z,2.05
2023-05-14T16:19:47.531Z,2.33
2023-05-14T16:22:49.461Z,2.53
2023-05-14T16:25:51.507Z,2.25
2023-05-14T16:28:53.467Z,1.70
2023-05-14T16:31:55.512Z,2.20
2023-05-14T16:34:57.482Z,2.07
2023-05-14T16:37:59.808Z,1.88
2023-05-14T16:41:01.971Z,2.15
2023-05-14T16:44:04.185Z,2.42
2023-05-14T16:47:06.311Z,2.40
2023-05-14T16:50:08.740Z,2.27
2023-05-14T16:53:10.767Z,2.45
2023-05-14T16:56:12.816Z,2.97
2023-05-14T16:59:15.628Z,2.95
2023-05-14T17:02:17.594Z,2.45
2023-05-14T17:05:20.312Z,2.63
2023-05-14T17:08:22.556Z,2.60
2023-05-14T17:11:24.613Z,2.63
2023-05-14T17:14:26.612Z,2.03
2023-05-14T17:17:28.644Z,2.72
2023-05-14T17:20:31.105Z,2.27
2023-05-14T17:23:33.652Z,2.75
2023-05-14T17:26:35.721Z,3.50
2023-05-14T17:29:37.873Z,2.78
2023-05-14T17:32:39.971Z,2.38
2023-05-14T17:35:43.841Z,2.07
2023-05-14T17:38:45.790Z,2.33
2023-05-14T17:41:47.815Z,2.58
2023-05-14T17:44:49.825Z,3.22
2023-05-14T17:47:51.852Z,2.47
2023-05-14T17:50:54.009Z,2.43
2023-05-14T17:53:56.359Z,2.67
2023-05-14T17:56:58.491Z,3.83
2023-05-14T18:00:00.592Z,3.17
2023-05-14T18:03:02.649Z,2.85
2023-05-14T18:06:04.985Z,2.73
2023-05-14T18:09:07.609Z,2.83
2023-05-14T18:12:10.116Z,2.60
2023-05-14T18:15:12.372Z,2.95
2023-05-14T18:18:17.164Z,2.42
2023-05-14T18:21:19.377Z,3.00
2023-05-14T18:24:22.120Z,2.80
2023-05-14T18:27:24.697Z,3.08
2023-05-14T18:30:27.165Z,2.33
2023-05-14T18:33:30.386Z,2.95
2023-05-14T18:36:33.168Z,3.33
2023-05-14T18:39:35.605Z,2.70
2023-05-14T18:42:38.008Z,3.08
2023-05-14T18:45:40.729Z,2.72
2023-05-14T18:48:43.150Z,3.45
2023-05-14T18:51:45.745Z,3.03
2023-05-14T18:54:48.603Z,3.10
2023-05-14T18:57:51.957Z,3.33
2023-05-14T19:00:54.416Z,2.47
2023-05-14T19:03:57.083Z,2.83
2023-05-14T19:06:59.518Z,2.83
2023-05-14T19:10:01.995Z,2.90
2023-05-14T19:13:04.519Z,3.30
2023-05-14T19:16:07.226Z,2.97
2023-05-14T19:19:09.953Z,2.60
2023-05-14T19:22:12.323Z,2.30
2023-05-14T19:25:14.817Z,3.10
2023-05-14T19:28:19.876Z,3.42
2023-05-14T19:31:22.204Z,3.13
2023-05-14T19:34:24.577Z,3.00
2023-05-14T19:37:26.955Z,3.10
2023-05-14T19:40:29.393Z,2.30
2023-05-14T19:43:31.764Z,3.33
2023-05-14T19:46:34.301Z,2.85
2023-05-14T19:49:36.748Z,2.95
2023-05-14T19:52:39.111Z,2.83
2023-05-14T19:55:41.851Z,2.08
2023-05-14T19:58:44.355Z,3.45
2023-05-14T20:01:47.184Z,2.97
2023-05-14T20:04:49.554Z,2.45
2023-05-14T20:07:51.802Z,2.60
2023-05-14T20:10:53.766Z,2.70
2023-05-14T20:13:55.773Z,3.05
2023-05-14T20:16:58.166Z,3.10
2023-05-14T20:20:00.357Z,3.00
2023-05-14T20:23:02.397Z,2.93
2023-05-14T20:26:04.504Z,2.90
2023-05-14T20:29:06.506Z,2.92
2023-05-14T20:32:08.506Z,3.60
2023-05-14T20:35:10.582Z,3.47
2023-05-14T20:38:13.468Z,3.43
2023-05-14T20:41:15.501Z,3.13
2023-05-14T20:44:18.450Z,3.15
2023-05-14T20:47:26.687Z,2.90
2023-05-14T20:50:28.772Z,2.60
2023-05-14T20:53:31.161Z,2.90
2023-05-14T20:56:33.198Z,2.92
2023-05-14T20:59:35.160Z,3.45
2023-05-14T21:02:37.640Z,2.83
2023-05-14T21:05:41.540Z,3.35
2023-05-14T21:08:43.534Z,3.33
2023-05-14T21:11:45.987Z,3.67
2023-05-14T21:14:47.958Z,3.85
2023-05-14T21:17:49.957Z,4.10
2023-05-14T21:20:52.281Z,3.55
2023-05-14T21:23:54.197Z,3.43
2023-05-14T21:26:56.168Z,3.30
2023-05-14T21:29:58.164Z,3.03
2023-05-14T21:33:00.347Z,2.95
2023-05-14T21:36:02.397Z,3.20
2023-05-14T21:39:04.355Z,3.27
2023-05-14T21:42:06.697Z,3.10
2023-05-14T21:45:09.094Z,2.33
2023-05-14T21:48:11.205Z,2.78
2023-05-14T21:51:13.267Z,3.42
2023-05-14T21:54:15.271Z,3.27
2023-05-14T21:57:17.231Z,3.65
2023-05-14T22:00:23.458Z,3.42
2023-05-14T22:03:25.545Z,3.10
2023-05-14T22:06:27.535Z,3.22
2023-05-14T22:09:30.408Z,3.00
2023-05-14T22:12:32.372Z,3.42
2023-05-14T22:15:34.510Z,3.20
2023-05-14T22:18:36.665Z,2.47
2023-05-14T22:21:38.656Z,2.92
2023-05-14T22:24:40.920Z,2.80
2023-05-14T22:27:42.885Z,3.13
2023-05-14T22:30:44.828Z,3.45
2023-05-14T22:33:46.800Z,3.35
2023-05-14T22:36:48.730Z,3.33
2023-05-14T22:39:50.693Z,3.63
2023-05-14T22:42:52.620Z,3.83
2023-05-14T22:45:54.646Z,2.97
2023-05-14T22:48:56.542Z,2.72
2023-05-14T22:51:58.589Z,2.80
2023-05-14T22:55:01.198Z,3.83
2023-05-14T22:58:03.978Z,3.30
2023-05-14T23:01:05.931Z,3.63
2023-05-14T23:04:08.001Z,3.30
2023-05-14T23:07:10.019Z,3.28
2023-05-14T23:10:11.919Z,3.13
2023-05-14T23:13:13.850Z,3.35
2023-05-14T23:16:16.124Z,2.67
2023-05-14T23:19:18.324Z,3.47
2023-05-14T23:22:20.396Z,3.42
2023-05-14T23:25:22.549Z,3.03
2023-05-14T23:28:24.778Z,3.42
2023-05-14T23:31:26.824Z,3.42
2023-05-14T23:34:28.865Z,2.72
2023-05-14T23:37:31.144Z,3.63
2023-05-14T23:40:33.676Z,3.60
2023-05-14T23:43:36.044Z,3.78
2023-05-14T23:46:38.083Z,3.42
2023-05-14T23:49:40.836Z,4.00
2023-05-14T23:52:42.753Z,3.83
2023-05-14T23:55:44.985Z,4.13
2023-05-14T23:58:46.973Z,3.17
